Ana Sayfa
METAR-TAF:

METAR-TAF

Havaalanları :

Port Said, Mısır

Enlem: 31-16N, Boylam: 032-18E, yükseklik: 6 m

Güncel hava durumu gözlemi

Rapor saat 08:00 UTC de 46 dakika önce yapıldı.
Rüzgar kuzeydan 6 kt
Sıcaklık 30°C
Nem 62%
Basınç 1008 hPa
Görüş mesafesi 10 km veya daha fazla
1500 m altında bulut yok ve kümülonimbus yok

METAR: HEPS 250800Z 01006KT CAVOK 30/22 Q1008 NOSIG

Saat: 10:46 (08:46 UTC)

Tahmin

Rapor saat 05:00 UTC de 3 saat ve 46 dakika önce yapıldı.
Ayın 25'si saat 06 UTC'den ayın 26'si saat 12 UTC'ye kadar geçerli Tahmin
Rüzgar kuzey/kuzeydoğudan 10 kt
Görüş mesafesi 10 km veya daha fazla
1500 m altında bulut yok ve kümülonimbus yok

TAF: HEPS 250500Z 2506/2612 02010KT CAVOK

4.000'den fazla havaalanı için hava durumu gözlemleri ve tahminleri (METAR ve TAF raporları).

Kullanılabilir istasyonlar harita üzerinde sarı ve kırmızı noktalarla gösterilir.

İstasyonun adını görmek için fareyi noktanın üzerinde gezdirin.

Sonrasında hava gözlem ve tahminlerini görmek için tıklayın.

Haritayı değiştirmek için: yaklaştırmak için siyah artı işaretli yeşil düğmeye ve uzaklaştırmak için de eksi işaretli düğmeye hızla tıklayın; bitişik haritalar için yeşil okları kullanın.


METAR-TAF: